This is the latest recevied weather packets stored in our database for station/object K4IR. If no packets are shown the sender has not sent any weather packets the latest 10 day(s).
| Time | Temp. | Humidity | Pressure | Rain* | Wind** | Luminosity | Snow |
|---|---|---|---|---|---|---|---|
| 1777640911 | 14.44° C | 75% | 1013.8 hPa | 0 mm | - | 221 W/m² | - |
| 1777640310 | 13.89° C | 77% | 1014.1 hPa | 0 mm | - | 115 W/m² | - |
| 1777639710 | 13.89° C | 77% | 1014 hPa | 0 mm | - | 129 W/m² | - |
| 1777639108 | 13.89° C | 77% | 1014.1 hPa | 0 mm | - | 129 W/m² | - |
| 1777638506 | 13.89° C | 77% | 1014 hPa | 0 mm | - | 147 W/m² | - |
| 1777637905 | 13.33° C | 78% | 1014 hPa | 0 mm | - | 107 W/m² | - |
| 1777637304 | 13.33° C | 80% | 1014 hPa | 0 mm | - | 106 W/m² | - |
| 1777636702 | 12.78° C | 80% | 1013.5 hPa | 0 mm | - | 74 W/m² | - |
| 1777636100 | 12.78° C | 82% | 1013.8 hPa | 0 mm | - | 65 W/m² | - |
| 1777635499 | 12.78° C | 83% | 1013.8 hPa | 0 mm | - | 59 W/m² | - |
| 1777634898 | 12.22° C | 86% | 1014 hPa | 0 mm | - | 53 W/m² | - |
| 1777634292 | 11.67° C | 89% | 1013.8 hPa | 0 mm | - | 39 W/m² | - |
| 1777633691 | 11.11° C | 94% | 1013.8 hPa | 0.51 mm | - | 26 W/m² | - |
| 1777633087 | 11.11° C | 96% | 1013.4 hPa | 0 mm | - | 16 W/m² | - |
| 1777632484 | 11.11° C | 98% | 1013.3 hPa | 0 mm | - | 10 W/m² | - |
| 1777631885 | 11.11° C | 98% | 1013.2 hPa | 0 mm | - | 8 W/m² | - |
| 1777631280 | 11.11° C | 99% | 1013.2 hPa | 0 mm | - | 3 W/m² | - |
| 1777630678 | 11.11° C | 99% | 1012.6 hPa | 0 mm | - | 1 W/m² | - |
| 1777630073 | 11.67° C | 99% | 1012.6 hPa | 0 mm | - | 0 W/m² | - |
| 1777629473 | 11.67° C | 99% | 1012.7 hPa | 0 mm | - | 0 W/m² | - |
| 1777628872 | 11.67° C | 99% | 1012.9 hPa | 0 mm | - | 0 W/m² | - |
| 1777628270 | 12.22° C | 99% | 1012.7 hPa | 0 mm | - | 0 W/m² | - |
| 1777627666 | 12.22° C | 99% | 1012.6 hPa | 0 mm | - | 0 W/m² | - |
| 1777627063 | 12.22° C | 99% | 1012.5 hPa | 0 mm | - | 0 W/m² | - |
| 1777626461 | 12.22° C | 99% | 1012.5 hPa | 0 mm | - | 0 W/m² | - |
* Rain latest hour (hover to see other rain measurements)
** Current wind speed in m/s (hover to see current wind gust speed)